NCAR-RAP Real-Time Weather Data

Output produced by METARs form (08 May 2021  01:58 UTC)
found at http://weather.rap.ucar.edu/surface/
 
KJBR 080053Z AUTO 21008KT 10SM CLR 19/08 A3005 RMK AO2 SLP174 T01890078 $
KJBR 072353Z AUTO 19010KT 10SM FEW120 20/05 A3005 RMK AO2 SLP174 T02000050 10217 20200 58027 $
KJBR 072253Z AUTO 20010KT 10SM CLR 21/04 A3008 RMK AO2 SLP184 T02060039 $
KJBR 072153Z AUTO 24011KT 10SM CLR 21/05 A3011 RMK AO2 SLP195 T02110050 $
KJBR 072053Z AUTO 21009KT 160V250 10SM CLR 21/07 A3013 RMK AO2 SLP201 T02110067 56023 $
KJBR 071953Z AUTO 20011KT 10SM CLR 21/06 A3015 RMK AO2 SLP209 T02110061 $
KJBR 071853Z AUTO 20007KT 10SM CLR 21/05 A3017 RMK AO2 SLP215 T02060050 $
KJBR 071753Z AUTO VRB05G15KT 10SM CLR 20/06 A3020 RMK AO2 SLP224 T02000061 10200 20100 58012 $
KJBR 071653Z AUTO 20004KT 10SM CLR 19/06 A3023 RMK AO2 SLP233 T01940056 $
KJBR 071553Z AUTO 26007KT 10SM CLR 18/06 A3023 RMK AO2 SLP234 T01830061
KJBR 071453Z AUTO 29007KT 10SM CLR 18/07 A3023 RMK AO2 SLP235 T01780067 51009 $
KJBR 071353Z AUTO 27006KT 10SM CLR 16/08 A3022 RMK AO2 SLP233 T01610083 $
KJBR 071253Z AUTO 31003KT 10SM CLR 14/08 A3021 RMK AO2 SLP229 T01390078 $
KJBR 071153Z AUTO 31004KT 10SM CLR 10/07 A3020 RMK AO2 SLP226 70014 T01000067 10122 20072 53011 $